Time;durP1;ratioP1;P1;durP2;ratioP2;P2;SDS_P1;SDS_P2;PMS_P1;PMS_P2;Temp;Humidity;BMP_temperature;BMP_pressure;BME280_temperature;BME280_humidity;BME280_pressure;Samples;Min_cycle;Max_cycle;Signal;HPM_P1;HPM_P2
2022/07/04 00:00:13;;;;;;;;;;;;;;;29.38;43.06;98754.38;2086209;28;19925;-47
2022/07/04 00:01:14;;;;;;;;;;;;;;;29.37;43.01;98750.84;2083252;28;19933;-48
2022/07/04 00:02:16;;;;;;;;;;;;;;;29.44;43.14;98755.19;2083146;28;19939;-47
2022/07/04 00:03:16;;;;;;;;;;;;;;;29.39;42.74;98753.28;2082559;28;21658;-47
2022/07/04 00:04:18;;;;;;;;;;;;;;;29.39;42.96;98751.38;2085054;28;19939;-46
2022/07/04 00:05:18;;;;;;;;;;;;;;;29.40;42.93;98757.66;2083920;28;20457;-47
2022/07/04 00:06:20;;;;;;;;;;;;;;;29.35;42.88;98749.47;2084243;28;20031;-50
2022/07/04 00:07:20;;;;;;;;;;;;;;;29.32;43.23;98750.81;2083942;28;19928;-49
2022/07/04 00:08:22;;;;;;;;;;;;;;;29.32;43.26;98758.22;2083005;28;19932;-47
2022/07/04 00:09:23;;;;;;;;;;;;;;;29.30;43.02;98763.13;2084005;28;19931;-47
2022/07/04 00:10:24;;;;;;;;;;;;;;;29.32;43.03;98764.47;2088634;28;20608;-45
2022/07/04 00:11:26;;;;;;;;;;;;;;;29.35;43.00;98752.19;2087302;28;19932;-46
2022/07/04 00:12:28;;;;;;;;;;;;;;;29.35;42.76;98760.38;2084327;28;20849;-49
2022/07/04 00:13:28;;;;;;;;;;;;;;;29.36;42.66;98760.13;2084035;28;19940;-46
2022/07/04 00:14:30;;;;;;;;;;;;;;;29.38;42.83;98762.56;2085802;28;19995;-48
2022/07/04 00:15:31;;;;;;;;;;;;;;;29.39;42.61;98750.53;2085211;28;21738;-47
2022/07/04 00:16:33;;;;;;;;;;;;;;;29.40;42.90;98755.75;2085707;28;20011;-48
2022/07/04 00:17:34;;;;;;;;;;;;;;;29.43;42.72;98759.84;2082944;28;19932;-46
2022/07/04 00:18:36;;;;;;;;;;;;;;;29.40;42.69;98761.22;2085955;28;20594;-48
2022/07/04 00:19:36;;;;;;;;;;;;;;;29.42;42.63;98758.22;2086967;28;19928;-48
2022/07/04 00:20:38;;;;;;;;;;;;;;;29.41;42.83;98759.31;2082920;28;19938;-47
2022/07/04 00:21:38;;;;;;;;;;;;;;;29.40;42.70;98755.75;2085270;28;19925;-47
2022/07/04 00:22:40;;;;;;;;;;;;;;;29.43;42.68;98748.94;2087240;28;20054;-48
2022/07/04 00:23:40;;;;;;;;;;;;;;;29.42;42.56;98752.75;2088185;28;19928;-50
2022/07/04 00:24:42;;;;;;;;;;;;;;;29.38;42.64;98755.19;2085383;28;20358;-46
2022/07/04 00:25:43;;;;;;;;;;;;;;;29.39;42.64;98750.53;2085644;28;19928;-46
2022/07/04 00:26:46;;;;;;;;;;;;;;;29.36;42.71;98753.81;2086119;28;19928;-48
2022/07/04 00:27:46;;;;;;;;;;;;;;;29.36;42.79;98751.94;2084986;28;19928;-46
2022/07/04 00:28:48;;;;;;;;;;;;;;;29.39;42.80;98754.13;2085490;28;19928;-47
2022/07/04 00:29:48;;;;;;;;;;;;;;;29.38;42.68;98757.13;2086712;28;20452;-48
2022/07/04 00:30:50;;;;;;;;;;;;;;;29.37;42.51;98760.94;2085481;28;19935;-47
2022/07/04 00:31:51;;;;;;;;;;;;;;;29.38;42.96;98757.13;2089520;28;19928;-49
2022/07/04 00:32:53;;;;;;;;;;;;;;;29.38;42.63;98757.94;2092816;28;20442;-48
2022/07/04 00:33:54;;;;;;;;;;;;;;;29.38;42.74;98762.56;2092500;28;19928;-47
2022/07/04 00:34:55;;;;;;;;;;;;;;;29.40;42.81;98765.88;2093173;28;20712;-46
2022/07/04 00:35:56;;;;;;;;;;;;;;;29.39;42.78;98764.22;2092993;28;20011;-48
2022/07/04 00:36:57;;;;;;;;;;;;;;;29.34;42.76;98758.75;2093093;28;19925;-50
2022/07/04 00:37:58;;;;;;;;;;;;;;;29.35;42.88;98763.94;2090585;28;20026;-46
2022/07/04 00:38:59;;;;;;;;;;;;;;;29.38;42.88;98759.84;2085037;28;19929;-49
2022/07/04 00:40:01;;;;;;;;;;;;;;;29.35;42.88;98757.66;2086529;28;19932;-48
2022/07/04 00:41:02;;;;;;;;;;;;;;;29.34;43.03;98761.50;2083807;28;19933;-47
2022/07/04 00:42:05;;;;;;;;;;;;;;;29.34;43.25;98756.03;2085255;28;19929;-49
2022/07/04 00:43:06;;;;;;;;;;;;;;;29.34;43.16;98762.31;2086245;28;19970;-49
2022/07/04 00:44:08;;;;;;;;;;;;;;;29.35;43.34;98757.66;2086173;28;20000;-46
2022/07/04 00:45:10;;;;;;;;;;;;;;;29.36;43.30;98756.56;2086759;28;19932;-49
2022/07/04 00:46:11;;;;;;;;;;;;;;;29.34;43.22;98762.31;2084177;28;19936;-45
2022/07/04 00:47:12;;;;;;;;;;;;;;;29.32;43.40;98758.22;2085346;28;19928;-45
2022/07/04 00:48:15;;;;;;;;;;;;;;;29.34;43.27;98756.84;2084074;28;19954;-47
2022/07/04 00:49:18;;;;;;;;;;;;;;;29.34;43.13;98766.97;2085758;28;19933;-48
2022/07/04 00:50:18;;;;;;;;;;;;;;;29.34;43.31;98756.84;2087655;28;19932;-45
2022/07/04 00:51:20;;;;;;;;;;;;;;;29.31;43.32;98764.75;2085357;28;19924;-46
2022/07/04 00:52:21;;;;;;;;;;;;;;;29.31;43.19;98762.84;2085646;28;19939;-48
2022/07/04 00:53:23;;;;;;;;;;;;;;;29.32;43.15;98758.22;2085308;28;19933;-46
2022/07/04 00:54:26;;;;;;;;;;;;;;;29.33;43.18;98759.84;2089240;28;19971;-48
2022/07/04 00:55:28;;;;;;;;;;;;;;;29.31;43.19;98764.75;2086329;28;20517;-46
2022/07/04 00:56:29;;;;;;;;;;;;;;;29.31;43.11;98767.47;2086166;28;19932;-47
2022/07/04 00:57:32;;;;;;;;;;;;;;;29.33;43.37;98768.03;2086578;28;20374;-48
2022/07/04 00:58:34;;;;;;;;;;;;;;;29.36;43.07;98770.22;2089342;28;19932;-45
2022/07/04 00:59:35;;;;;;;;;;;;;;;29.33;43.41;98770.75;2087258;28;20075;-46
2022/07/04 01:00:37;;;;;;;;;;;;;;;29.35;42.88;98774.06;2088559;28;19969;-46
2022/07/04 01:01:38;;;;;;;;;;;;;;;29.35;43.32;98774.88;2084963;28;20014;-48
2022/07/04 01:02:39;;;;;;;;;;;;;;;29.34;42.77;98775.97;2087766;28;20017;-45
2022/07/04 01:03:40;;;;;;;;;;;;;;;29.33;43.16;98765.28;2086866;28;19936;-46
2022/07/04 01:04:42;;;;;;;;;;;;;;;29.30;43.08;98774.03;2087668;28;20217;-47
2022/07/04 01:05:44;;;;;;;;;;;;;;;29.31;43.14;98765.59;2086374;28;19924;-45
2022/07/04 01:06:45;;;;;;;;;;;;;;;29.29;43.20;98766.94;2089507;28;19959;-46
2022/07/04 01:07:46;;;;;;;;;;;;;;;29.29;43.22;98769.69;2088136;28;19928;-45
2022/07/04 01:08:48;;;;;;;;;;;;;;;29.31;43.38;98756.53;2089068;28;20014;-46
2022/07/04 01:09:48;;;;;;;;;;;;;;;29.28;43.23;98763.41;2086964;28;19931;-47
2022/07/04 01:10:50;;;;;;;;;;;;;;;29.32;43.38;98755.47;2088601;28;19960;-48
2022/07/04 01:11:51;;;;;;;;;;;;;;;29.33;43.33;98757.91;2085128;28;19935;-46
2022/07/04 01:12:54;;;;;;;;;;;;;;;29.35;43.38;98761.22;2090317;28;19928;-47
2022/07/04 01:13:55;;;;;;;;;;;;;;;29.33;43.47;98759.84;2087023;28;19929;-47
2022/07/04 01:14:57;;;;;;;;;;;;;;;29.32;43.54;98758.22;2086929;28;20247;-46
2022/07/04 01:15:58;;;;;;;;;;;;;;;29.31;43.42;98762.00;2085317;28;19936;-48
2022/07/04 01:16:59;;;;;;;;;;;;;;;29.32;43.64;98753.56;2077830;28;20752;-46
2022/07/04 01:18:00;;;;;;;;;;;;;;;29.34;43.76;98758.75;2085396;28;19932;-47
2022/07/04 01:19:02;;;;;;;;;;;;;;;29.35;43.83;98752.19;2089593;28;20485;-49
2022/07/04 01:20:03;;;;;;;;;;;;;;;29.34;43.72;98745.09;2089318;28;19932;-48
2022/07/04 01:21:06;;;;;;;;;;;;;;;29.34;43.68;98745.09;2089547;28;19954;-48
2022/07/04 01:22:07;;;;;;;;;;;;;;;29.30;43.89;98747.53;2090806;28;19924;-47
2022/07/04 01:23:09;;;;;;;;;;;;;;;29.29;43.82;98737.72;2083472;28;19966;-49
2022/07/04 01:24:10;;;;;;;;;;;;;;;29.29;43.64;98739.63;2086957;28;19928;-46
2022/07/04 01:25:13;;;;;;;;;;;;;;;29.31;43.84;98737.41;2084803;28;19946;-48
2022/07/04 01:26:14;;;;;;;;;;;;;;;29.31;44.02;98742.88;2085415;28;20586;-50
2022/07/04 01:27:16;;;;;;;;;;;;;;;29.28;44.07;98743.44;2086290;28;19928;-50
2022/07/04 01:28:18;;;;;;;;;;;;;;;29.29;44.11;98747.81;2087192;28;19936;-50
2022/07/04 01:29:20;;;;;;;;;;;;;;;29.30;44.05;98744.00;2087714;28;19928;-48
2022/07/04 01:30:22;;;;;;;;;;;;;;;29.31;44.25;98746.47;2086740;28;19971;-48
2022/07/04 01:31:22;;;;;;;;;;;;;;;29.30;44.18;98738.53;2088900;28;19943;-52
2022/07/04 01:32:24;;;;;;;;;;;;;;;29.31;44.29;98740.16;2088725;28;19929;-46
2022/07/04 01:33:24;;;;;;;;;;;;;;;29.25;44.33;98730.31;2084000;28;19928;-45
2022/07/04 01:34:26;;;;;;;;;;;;;;;29.25;44.39;98724.84;2083386;28;20067;-51
2022/07/04 01:35:26;;;;;;;;;;;;;;;29.27;44.57;98728.16;2086599;28;20744;-49
2022/07/04 01:36:30;;;;;;;;;;;;;;;29.29;44.42;98728.69;2087947;28;19935;-49
2022/07/04 01:37:30;;;;;;;;;;;;;;;29.28;44.43;98729.78;2087117;28;19939;-45
2022/07/04 01:38:32;;;;;;;;;;;;;;;29.27;44.45;98731.69;2090727;28;19924;-52
2022/07/04 01:39:32;;;;;;;;;;;;;;;29.28;44.03;98733.34;2091134;28;19932;-49
2022/07/04 01:40:34;;;;;;;;;;;;;;;29.27;44.22;98739.06;2088056;28;20023;-48
2022/07/04 01:41:35;;;;;;;;;;;;;;;29.27;44.31;98728.16;2086993;28;19924;-52
2022/07/04 01:42:36;;;;;;;;;;;;;;;29.26;44.65;98737.44;2087704;28;19932;-49
2022/07/04 01:43:37;;;;;;;;;;;;;;;29.26;44.70;98721.88;2086295;28;20594;-49
2022/07/04 01:44:38;;;;;;;;;;;;;;;29.25;44.79;98730.31;2087033;28;20020;-50
2022/07/04 01:45:39;;;;;;;;;;;;;;;29.23;44.65;98732.53;2089781;28;20550;-46
2022/07/04 01:46:41;;;;;;;;;;;;;;;29.21;44.63;98723.78;2088793;28;19932;-50
2022/07/04 01:47:41;;;;;;;;;;;;;;;29.20;44.56;98725.69;2082465;28;19928;-50
2022/07/04 01:48:43;;;;;;;;;;;;;;;29.24;44.83;98731.44;2084927;28;19968;-50
2022/07/04 01:49:43;;;;;;;;;;;;;;;29.20;44.83;98730.31;2090259;28;20571;-47
2022/07/04 01:50:45;;;;;;;;;;;;;;;29.18;45.04;98731.41;2090203;28;19974;-50
2022/07/04 01:51:47;;;;;;;;;;;;;;;29.18;45.10;98734.13;2091058;28;19925;-50
2022/07/04 01:52:49;;;;;;;;;;;;;;;29.17;45.18;98724.31;2089513;28;19981;-51
2022/07/04 01:53:49;;;;;;;;;;;;;;;29.15;45.33;98726.50;2087448;28;20557;-49
2022/07/04 01:54:51;;;;;;;;;;;;;;;29.13;45.24;98717.75;2088835;28;19933;-50
2022/07/04 01:55:52;;;;;;;;;;;;;;;29.14;45.26;98724.88;2085242;28;19995;-47
2022/07/04 01:56:53;;;;;;;;;;;;;;;29.15;45.28;98729.22;2085815;28;20377;-48
2022/07/04 01:57:54;;;;;;;;;;;;;;;29.16;45.26;98727.31;2087346;28;19928;-50
2022/07/04 01:58:55;;;;;;;;;;;;;;;29.15;45.15;98723.75;2086187;28;19924;-49
2022/07/04 02:01:30;;;;;;;;;;;;;;;29.15;45.05;98731.97;2090405;28;20159;-48
2022/07/04 02:02:30;;;;;;;;;;;;;;;29.15;44.94;98731.97;2088137;28;19928;-48
2022/07/04 02:03:32;;;;;;;;;;;;;;;29.15;44.98;98729.22;2090872;28;21338;-47
2022/07/04 02:04:33;;;;;;;;;;;;;;;29.11;44.94;98730.88;2086088;28;20509;-49
2022/07/04 02:05:34;;;;;;;;;;;;;;;29.12;45.08;98726.22;2082018;28;19933;-47
2022/07/04 02:06:35;;;;;;;;;;;;;;;29.16;44.94;98725.41;2086637;28;19925;-49
2022/07/04 02:07:38;;;;;;;;;;;;;;;29.14;45.17;98730.31;2089303;28;19932;-47
2022/07/04 02:09:59;;;;;;;;;;;;;;;29.10;45.16;98729.22;2090234;28;20390;-48
2022/07/04 02:10:59;;;;;;;;;;;;;;;29.12;45.23;98732.50;2090593;28;20661;-50
2022/07/04 02:13:20;;;;;;;;;;;;;;;29.14;45.50;98734.94;2082112;28;19932;-50
2022/07/04 02:14:20;;;;;;;;;;;;;;;29.13;45.62;98738.78;2083947;28;19935;-49
2022/07/04 02:15:22;;;;;;;;;;;;;;;29.13;45.69;98739.59;2083951;28;20062;-49
2022/07/04 02:16:22;;;;;;;;;;;;;;;29.11;45.59;98730.03;2087653;28;19932;-47
2022/07/04 02:17:24;;;;;;;;;;;;;;;29.13;45.62;98728.66;2087400;28;19928;-46
2022/07/04 02:18:25;;;;;;;;;;;;;;;29.13;45.74;98728.66;2086997;28;19932;-50
2022/07/04 02:19:26;;;;;;;;;;;;;;;29.12;45.78;98732.50;2090257;28;20227;-48
2022/07/04 02:20:28;;;;;;;;;;;;;;;29.12;46.01;98727.03;2087638;28;20456;-46
2022/07/04 02:21:29;;;;;;;;;;;;;;;29.11;45.95;98722.69;2084691;28;20635;-50
2022/07/04 02:22:30;;;;;;;;;;;;;;;29.14;45.89;98719.41;2088793;28;19935;-49
2022/07/04 02:23:32;;;;;;;;;;;;;;;29.13;46.06;98717.75;2084865;28;20046;-50
2022/07/04 02:24:34;;;;;;;;;;;;;;;29.13;46.05;98717.75;2084072;28;19940;-47
2022/07/04 02:25:35;;;;;;;;;;;;;;;29.10;46.28;98712.81;2086110;28;20452;-47
2022/07/04 02:26:37;;;;;;;;;;;;;;;29.13;46.25;98709.56;2085837;28;19933;-48
2022/07/04 02:27:37;;;;;;;;;;;;;;;29.15;46.33;98714.75;2083347;28;20920;-48
2022/07/04 02:28:39;;;;;;;;;;;;;;;29.13;46.31;98723.19;2085735;28;20031;-49
2022/07/04 02:29:39;;;;;;;;;;;;;;;29.13;46.39;98711.47;2087509;28;19928;-50
2022/07/04 02:30:41;;;;;;;;;;;;;;;29.13;46.49;98714.19;2090881;28;19924;-47
2022/07/04 02:31:42;;;;;;;;;;;;;;;29.09;46.76;98715.84;2090249;28;19981;-49
2022/07/04 02:32:43;;;;;;;;;;;;;;;29.08;46.78;98709.53;2090456;28;19932;-49
2022/07/04 02:33:44;;;;;;;;;;;;;;;29.06;46.92;98708.16;2090771;28;19929;-49
2022/07/04 02:34:45;;;;;;;;;;;;;;;29.04;46.65;98711.19;2089289;28;19956;-47
2022/07/04 02:35:46;;;;;;;;;;;;;;;29.00;46.88;98706.50;2084719;28;20019;-50
2022/07/04 02:36:47;;;;;;;;;;;;;;;29.05;46.75;98704.63;2087543;28;20035;-49
2022/07/04 02:37:49;;;;;;;;;;;;;;;29.04;46.97;98710.38;2085326;28;19932;-48
2022/07/04 02:38:51;;;;;;;;;;;;;;;29.02;46.99;98710.59;2090187;28;20028;-48
2022/07/04 02:39:52;;;;;;;;;;;;;;;29.03;46.99;98712.28;2090456;28;20045;-48
2022/07/04 02:40:53;;;;;;;;;;;;;;;29.07;47.00;98713.38;2090751;28;20895;-46
2022/07/04 02:41:55;;;;;;;;;;;;;;;29.08;46.91;98714.19;2090776;28;19928;-50
2022/07/04 02:42:55;;;;;;;;;;;;;;;29.08;46.87;98712.28;2085244;28;19935;-48
2022/07/04 02:43:57;;;;;;;;;;;;;;;29.07;47.05;98716.09;2086010;28;19931;-51
2022/07/04 02:44:57;;;;;;;;;;;;;;;29.05;47.12;98715.53;2090298;28;19928;-49
2022/07/04 02:45:59;;;;;;;;;;;;;;;29.09;46.76;98715.84;2090611;28;19946;-48
2022/07/04 02:47:00;;;;;;;;;;;;;;;29.09;46.94;98716.66;2090898;28;19931;-50
2022/07/04 02:48:02;;;;;;;;;;;;;;;29.08;46.48;98715.00;2090710;28;19950;-49
2022/07/04 02:49:03;;;;;;;;;;;;;;;29.08;47.05;98715.00;2089110;28;19936;-49
2022/07/04 02:50:06;;;;;;;;;;;;;;;29.09;46.92;98710.38;2085179;28;19931;-52
2022/07/04 02:51:06;;;;;;;;;;;;;;;29.09;46.92;98711.19;2086592;28;19937;-52
2022/07/04 02:52:08;;;;;;;;;;;;;;;29.10;47.03;98712.00;2086463;28;19954;-50
2022/07/04 02:53:08;;;;;;;;;;;;;;;29.07;47.01;98709.81;2089563;28;19925;-50
2022/07/04 02:54:11;;;;;;;;;;;;;;;29.09;46.95;98710.38;2085260;28;20616;-47
2022/07/04 02:55:12;;;;;;;;;;;;;;;29.04;47.12;98722.09;2085061;28;19925;-48
2022/07/04 02:56:13;;;;;;;;;;;;;;;29.05;47.12;98715.53;2087317;28;20023;-48
2022/07/04 02:57:14;;;;;;;;;;;;;;;29.04;46.99;98722.09;2088648;28;20401;-48
2022/07/04 02:58:16;;;;;;;;;;;;;;;29.06;46.92;98725.41;2085240;28;19924;-48
2022/07/04 02:59:16;;;;;;;;;;;;;;;29.06;46.93;98722.66;2087056;28;19925;-52
2022/07/04 03:00:18;;;;;;;;;;;;;;;29.06;46.98;98724.56;2088610;28;19924;-50
2022/07/04 03:01:20;;;;;;;;;;;;;;;29.07;46.91;98713.38;2088057;28;19929;-47
2022/07/04 03:02:20;;;;;;;;;;;;;;;29.07;46.88;98718.84;2090040;28;20650;-46
2022/07/04 03:03:22;;;;;;;;;;;;;;;29.09;46.99;98722.13;2089968;28;19932;-47
2022/07/04 03:04:22;;;;;;;;;;;;;;;29.10;46.81;98715.56;2086656;28;19935;-48
2022/07/04 03:05:24;;;;;;;;;;;;;;;29.07;46.97;98710.63;2084362;28;19942;-47
2022/07/04 03:06:25;;;;;;;;;;;;;;;29.05;46.97;98715.53;2083013;28;20528;-48
2022/07/04 03:07:27;;;;;;;;;;;;;;;29.06;47.04;98717.22;2085766;28;20035;-50
2022/07/04 03:08:27;;;;;;;;;;;;;;;29.03;47.04;98716.88;2087500;28;20328;-50
2022/07/04 03:09:30;;;;;;;;;;;;;;;29.02;47.00;98716.06;2086465;28;19929;-49
2022/07/04 03:10:31;;;;;;;;;;;;;;;29.04;46.91;98719.38;2086257;28;20028;-49
2022/07/04 03:11:33;;;;;;;;;;;;;;;29.05;47.02;98723.75;2084010;28;20437;-48
2022/07/04 03:12:33;;;;;;;;;;;;;;;29.03;47.01;98725.94;2087631;28;19932;-48
2022/07/04 03:13:36;;;;;;;;;;;;;;;29.02;47.09;98720.69;2087168;28;19930;-51
2022/07/04 03:14:36;;;;;;;;;;;;;;;29.02;47.06;98721.53;2085381;28;20420;-47
2022/07/04 03:15:38;;;;;;;;;;;;;;;29.02;47.10;98715.25;2087886;28;19960;-50
2022/07/04 03:16:39;;;;;;;;;;;;;;;28.98;47.19;98714.97;2087824;28;19929;-47
2022/07/04 03:17:40;;;;;;;;;;;;;;;28.99;47.19;98713.88;2086621;28;19924;-50
2022/07/04 03:18:41;;;;;;;;;;;;;;;29.00;47.32;98714.69;2086798;28;20032;-49
2022/07/04 03:19:42;;;;;;;;;;;;;;;28.98;47.14;98708.69;2084025;28;20386;-46
2022/07/04 03:20:44;;;;;;;;;;;;;;;28.98;47.10;98708.69;2084949;28;19924;-50
2022/07/04 03:21:44;;;;;;;;;;;;;;;28.99;47.08;98710.31;2089112;28;21007;-46
2022/07/04 03:22:46;;;;;;;;;;;;;;;28.95;47.19;98710.88;2089588;28;20019;-48
2022/07/04 03:23:57;;;;;;;;;;;;;;;28.97;47.28;98716.03;2088584;28;19936;-49
2022/07/04 03:25:00;;;;;;;;;;;;;;;28.97;47.18;98713.31;2090051;28;19928;-48
2022/07/04 03:26:01;;;;;;;;;;;;;;;28.98;46.86;98709.50;2085948;28;19933;-50
2022/07/04 03:27:02;;;;;;;;;;;;;;;29.00;46.88;98712.78;2086254;28;20198;-49
2022/07/04 03:28:03;;;;;;;;;;;;;;;29.02;46.71;98707.06;2086392;28;19933;-48
2022/07/04 03:29:05;;;;;;;;;;;;;;;29.01;46.68;98708.97;2087706;28;20072;-50
2022/07/04 03:30:06;;;;;;;;;;;;;;;29.01;46.72;98719.06;2086935;28;19931;-48
2022/07/04 03:31:08;;;;;;;;;;;;;;;29.00;46.68;98717.41;2087595;28;19965;-47
2022/07/04 03:32:08;;;;;;;;;;;;;;;29.02;46.74;98721.53;2086645;28;19929;-55
2022/07/04 03:33:10;;;;;;;;;;;;;;;29.05;46.54;98720.19;2085919;28;19975;-45
2022/07/04 03:34:12;;;;;;;;;;;;;;;29.04;46.40;98724.84;2086755;28;19939;-48
2022/07/04 03:35:12;;;;;;;;;;;;;;;29.03;46.51;98717.75;2087009;28;19932;-51
2022/07/04 03:36:14;;;;;;;;;;;;;;;29.01;46.33;98719.88;2086788;28;19940;-51
2022/07/04 03:37:16;;;;;;;;;;;;;;;29.04;46.40;98726.75;2084166;28;19924;-47
2022/07/04 03:38:16;;;;;;;;;;;;;;;29.03;46.26;98728.66;2084763;28;20018;-50
2022/07/04 03:39:18;;;;;;;;;;;;;;;29.05;46.20;98725.66;2085664;28;20578;-46
2022/07/04 03:40:20;;;;;;;;;;;;;;;29.05;46.14;98734.66;2086249;28;21047;-51
2022/07/04 03:41:22;;;;;;;;;;;;;;;29.06;45.85;98743.66;2082169;28;20890;-49
2022/07/04 03:42:22;;;;;;;;;;;;;;;29.07;45.96;98739.88;2085618;28;19932;-49
2022/07/04 03:43:24;;;;;;;;;;;;;;;29.04;46.00;98741.22;2089631;28;20706;-46
2022/07/04 03:44:25;;;;;;;;;;;;;;;29.05;45.94;98740.13;2085761;28;19962;-47
2022/07/04 03:45:26;;;;;;;;;;;;;;;29.04;45.92;98745.88;2091093;28;19928;-47
2022/07/04 03:46:27;;;;;;;;;;;;;;;29.04;45.95;98746.69;2088424;28;19929;-48
2022/07/04 03:47:29;;;;;;;;;;;;;;;29.05;46.18;98745.59;2090874;28;19925;-50
2022/07/04 03:48:30;;;;;;;;;;;;;;;29.06;45.99;98747.25;2090678;28;19967;-55
2022/07/04 03:49:31;;;;;;;;;;;;;;;29.07;46.02;98750.78;2090737;28;19928;-46
2022/07/04 03:50:32;;;;;;;;;;;;;;;29.05;46.01;98750.22;2092269;28;19928;-46
2022/07/04 03:51:33;;;;;;;;;;;;;;;29.07;45.74;98751.59;2090160;28;19932;-47
2022/07/04 03:52:34;;;;;;;;;;;;;;;29.06;45.83;98747.25;2086903;28;22678;-49
2022/07/04 03:53:36;;;;;;;;;;;;;;;29.07;45.83;98750.78;2086026;28;20023;-51
2022/07/04 03:54:36;;;;;;;;;;;;;;;29.07;45.91;98751.59;2089187;28;19940;-47
2022/07/04 03:55:39;;;;;;;;;;;;;;;29.07;45.95;98756.25;2087433;28;20032;-50
2022/07/04 03:56:40;;;;;;;;;;;;;;;29.05;45.89;98753.78;2089740;28;19942;-47
2022/07/04 03:57:42;;;;;;;;;;;;;;;29.05;45.93;98753.78;2088296;28;20136;-48
2022/07/04 03:58:42;;;;;;;;;;;;;;;29.06;45.81;98760.91;2088183;28;19925;-51
2022/07/04 03:59:44;;;;;;;;;;;;;;;29.05;45.82;98755.69;2087807;28;19925;-48
2022/07/04 04:00:45;;;;;;;;;;;;;;;29.05;45.77;98753.78;2084552;28;20386;-49
2022/07/04 04:01:47;;;;;;;;;;;;;;;29.07;45.78;98751.59;2092578;28;19986;-51
2022/07/04 04:02:47;;;;;;;;;;;;;;;29.07;45.98;98758.97;2091372;28;19932;-48
2022/07/04 04:06:27;;;;;;;;;;;;;;;29.04;45.93;98752.16;2088800;28;19976;-50
2022/07/04 04:07:27;;;;;;;;;;;;;;;29.07;45.95;98753.53;2089976;28;19940;-48
2022/07/04 04:08:29;;;;;;;;;;;;;;;29.07;45.99;98758.97;2085707;28;20995;-49
2022/07/04 04:09:29;;;;;;;;;;;;;;;29.06;45.76;98754.59;2083657;28;19933;-49
2022/07/04 04:10:32;;;;;;;;;;;;;;;29.05;45.98;98761.16;2089784;28;20015;-48
2022/07/04 04:11:34;;;;;;;;;;;;;;;29.04;46.06;98757.59;2088092;28;20571;-50
2022/07/04 04:12:35;;;;;;;;;;;;;;;29.03;46.10;98753.25;2087898;28;19981;-50
2022/07/04 04:13:36;;;;;;;;;;;;;;;29.01;45.97;98760.84;2089876;28;19932;-48
2022/07/04 04:14:37;;;;;;;;;;;;;;;29.02;46.07;98756.19;2087376;28;20951;-46
2022/07/04 04:15:38;;;;;;;;;;;;;;;29.02;46.06;98759.75;2088645;28;19928;-47
2022/07/04 04:16:41;;;;;;;;;;;;;;;29.03;46.07;98766.03;2088616;28;19935;-48
2022/07/04 04:17:41;;;;;;;;;;;;;;;29.02;46.01;98769.84;2091550;28;20456;-49
2022/07/04 04:18:43;;;;;;;;;;;;;;;29.04;45.95;98765.81;2089438;28;19924;-46
2022/07/04 04:19:44;;;;;;;;;;;;;;;29.05;46.09;98769.34;2091721;28;19936;-49
2022/07/04 04:20:45;;;;;;;;;;;;;;;29.04;46.21;98771.25;2089863;28;20416;-48
2022/07/04 04:21:46;;;;;;;;;;;;;;;29.04;46.16;98770.44;2088722;28;19929;-48
2022/07/04 04:22:47;;;;;;;;;;;;;;;29.00;46.23;98766.56;2088944;28;21334;-47
2022/07/04 04:23:48;;;;;;;;;;;;;;;29.01;46.08;98769.03;2085706;28;19925;-46
2022/07/04 04:24:50;;;;;;;;;;;;;;;29.01;46.58;98763.59;2084508;28;19929;-48
2022/07/04 04:25:50;;;;;;;;;;;;;;;29.05;46.62;98769.34;2085418;28;20588;-47
2022/07/04 04:26:53;;;;;;;;;;;;;;;29.03;47.31;98763.28;2083983;28;19933;-48
2022/07/04 04:27:54;;;;;;;;;;;;;;;28.98;47.61;98761.38;2088506;28;19933;-46
2022/07/04 04:28:55;;;;;;;;;;;;;;;28.94;47.56;98763.00;2086600;28;19924;-48
2022/07/04 04:29:56;;;;;;;;;;;;;;;28.94;47.47;98760.28;2089951;28;19928;-50
2022/07/04 04:30:58;;;;;;;;;;;;;;;28.94;47.51;98763.81;2088030;28;20394;-48
2022/07/04 04:31:58;;;;;;;;;;;;;;;28.95;47.40;98754.56;2088245;28;19964;-51
2022/07/04 04:33:00;;;;;;;;;;;;;;;28.89;47.38;98761.09;2084706;28;19928;-49
2022/07/04 04:34:01;;;;;;;;;;;;;;;28.86;47.42;98764.38;2087218;28;20457;-49
2022/07/04 04:35:02;;;;;;;;;;;;;;;28.87;47.46;98765.19;2087019;28;19924;-48
2022/07/04 04:36:04;;;;;;;;;;;;;;;28.86;47.50;98763.53;2087008;28;19940;-51
2022/07/04 04:37:05;;;;;;;;;;;;;;;28.85;47.56;98768.16;2087052;28;20432;-49
2022/07/04 04:38:07;;;;;;;;;;;;;;;28.92;47.30;98765.19;2088171;28;19935;-47
2022/07/04 04:39:07;;;;;;;;;;;;;;;28.94;47.07;98768.47;2088786;28;20227;-47
2022/07/04 04:40:09;;;;;;;;;;;;;;;28.94;46.90;98769.28;2087416;28;20007;-46
2022/07/04 04:41:10;;;;;;;;;;;;;;;28.95;46.79;98770.13;2087182;28;20374;-49
2022/07/04 04:42:13;;;;;;;;;;;;;;;28.95;47.02;98765.47;2087924;28;19931;-47
2022/07/04 04:43:13;;;;;;;;;;;;;;;28.91;46.95;98771.72;2086864;28;19932;-48
2022/07/04 04:44:15;;;;;;;;;;;;;;;28.92;46.84;98770.66;2088340;28;20401;-48
2022/07/04 04:45:17;;;;;;;;;;;;;;;28.96;46.75;98774.47;2090937;28;20069;-55
2022/07/04 04:46:17;;;;;;;;;;;;;;;28.96;46.70;98778.03;2093605;28;19932;-46
2022/07/04 04:47:19;;;;;;;;;;;;;;;28.97;46.64;98778.84;2091508;28;19928;-49
2022/07/04 04:48:20;;;;;;;;;;;;;;;28.94;46.70;98772.00;2086896;28;20310;-48
2022/07/04 04:49:22;;;;;;;;;;;;;;;28.89;46.76;98782.94;2086603;28;19932;-48
2022/07/04 04:50:22;;;;;;;;;;;;;;;28.91;46.75;98786.19;2088496;28;19928;-48
2022/07/04 04:51:24;;;;;;;;;;;;;;;28.92;46.48;98781.59;2086303;28;20571;-49
2022/07/04 04:52:24;;;;;;;;;;;;;;;28.93;46.52;98777.75;2087790;28;19928;-47
2022/07/04 04:53:26;;;;;;;;;;;;;;;28.88;46.67;98786.75;2086703;28;20015;-49
2022/07/04 04:54:27;;;;;;;;;;;;;;;28.93;46.41;98783.22;2087246;28;19980;-47
2022/07/04 04:55:28;;;;;;;;;;;;;;;28.92;46.43;98787.03;2086560;28;20023;-49
2022/07/04 04:56:29;;;;;;;;;;;;;;;28.90;46.54;98781.03;2086888;28;19939;-47
2022/07/04 04:57:32;;;;;;;;;;;;;;;28.92;46.55;98781.59;2087294;28;19932;-49
2022/07/04 04:58:32;;;;;;;;;;;;;;;28.90;46.48;98787.28;2088092;28;20298;-50
2022/07/04 04:59:34;;;;;;;;;;;;;;;28.85;46.45;98792.72;2085210;28;19932;-47
2022/07/04 05:00:35;;;;;;;;;;;;;;;28.84;46.65;98795.75;2088380;28;19925;-48
2022/07/04 05:01:36;;;;;;;;;;;;;;;28.84;46.67;98788.38;2086102;28;19933;-47
2022/07/04 05:02:37;;;;;;;;;;;;;;;28.82;46.72;98790.53;2085505;28;20393;-47
2022/07/04 05:03:39;;;;;;;;;;;;;;;28.82;46.44;98796.00;2085493;28;20043;-49
2022/07/04 05:04:40;;;;;;;;;;;;;;;28.83;46.72;98791.34;2085084;28;21901;-47
2022/07/04 05:05:41;;;;;;;;;;;;;;;28.83;46.56;98794.91;2085434;28;20391;-48
2022/07/04 05:06:43;;;;;;;;;;;;;;;28.84;46.47;98790.28;2089981;28;19931;-47
2022/07/04 05:07:44;;;;;;;;;;;;;;;28.82;46.30;98787.00;2085224;28;19952;-47
2022/07/04 05:08:45;;;;;;;;;;;;;;;28.77;46.52;98785.06;2080354;28;19969;-50
2022/07/04 05:09:46;;;;;;;;;;;;;;;28.78;46.57;98788.59;2078253;28;19928;-49
2022/07/04 05:10:47;;;;;;;;;;;;;;;28.74;46.45;98785.59;2077801;28;22195;-47
2022/07/04 05:11:49;;;;;;;;;;;;;;;28.71;46.57;98780.69;2084508;28;19951;-53
2022/07/04 05:12:51;;;;;;;;;;;;;;;28.63;46.58;98783.91;2087714;28;20395;-47
2022/07/04 05:13:52;;;;;;;;;;;;;;;28.58;46.50;98779.25;2090868;28;20021;-50
2022/07/04 05:14:55;;;;;;;;;;;;;;;28.56;46.45;98778.72;2092265;28;19947;-49
2022/07/04 05:15:55;;;;;;;;;;;;;;;28.51;46.30;98781.41;2093626;28;19925;-47
2022/07/04 05:16:57;;;;;;;;;;;;;;;28.51;46.35;98779.50;2089178;28;20689;-46
2022/07/04 05:17:57;;;;;;;;;;;;;;;28.53;45.86;98781.97;2085213;28;20018;-46
2022/07/04 05:18:59;;;;;;;;;;;;;;;28.51;45.90;98781.41;2088500;28;20528;-48
2022/07/04 05:20:00;;;;;;;;;;;;;;;28.49;45.85;98783.56;2086940;28;19933;-46
2022/07/04 05:21:01;;;;;;;;;;;;;;;28.46;45.88;98784.91;2089530;28;20447;-47
2022/07/04 05:22:02;;;;;;;;;;;;;;;28.43;45.59;98782.72;2086310;28;19932;-49
2022/07/04 05:23:04;;;;;;;;;;;;;;;28.44;45.37;98786.28;2085508;28;19936;-47
2022/07/04 05:24:04;;;;;;;;;;;;;;;28.45;45.06;98785.19;2087685;28;19939;-48
2022/07/04 05:25:06;;;;;;;;;;;;;;;28.44;45.15;98778.91;2089591;28;19979;-47
2022/07/04 05:26:07;;;;;;;;;;;;;;;28.40;45.00;98779.69;2084069;28;19928;-46